createdAt,value
2022-12-03T00:01:30.126Z,17.63
2022-12-03T00:03:59.232Z,18.63
2022-12-03T00:06:31.473Z,18.77
2022-12-03T00:09:01.815Z,17.93
2022-12-03T00:11:29.315Z,18.97
2022-12-03T00:14:00.001Z,18.77
2022-12-03T00:16:27.709Z,18.60
2022-12-03T00:18:55.251Z,18.90
2022-12-03T00:21:24.865Z,19.97
2022-12-03T00:23:52.531Z,18.53
2022-12-03T00:26:20.163Z,19.47
2022-12-03T00:28:48.067Z,17.40
2022-12-03T00:31:15.726Z,18.37
2022-12-03T00:33:43.380Z,19.73
2022-12-03T00:36:11.094Z,19.83
2022-12-03T00:38:40.072Z,20.53
2022-12-03T00:41:07.612Z,18.60
2022-12-03T00:43:35.154Z,19.03
2022-12-03T00:46:02.791Z,20.50
2022-12-03T00:48:30.385Z,19.23
2022-12-03T00:51:00.989Z,20.27
2022-12-03T00:53:28.586Z,20.40
2022-12-03T00:55:59.172Z,19.73
2022-12-03T00:58:26.775Z,20.27
2022-12-03T01:00:54.278Z,19.73
2022-12-03T01:03:21.903Z,21.53
2022-12-03T01:05:49.633Z,20.37
2022-12-03T01:08:17.315Z,19.97
2022-12-03T01:10:44.883Z,19.00
2022-12-03T01:13:13.814Z,18.93
2022-12-03T01:15:41.464Z,20.10
2022-12-03T01:18:09.072Z,20.47
2022-12-03T01:20:38.520Z,18.83
2022-12-03T01:23:06.157Z,19.63
2022-12-03T01:25:33.680Z,19.30
2022-12-03T01:28:01.255Z,17.90
2022-12-03T01:30:50.172Z,18.00
2022-12-03T01:33:16.767Z,16.47
2022-12-03T01:35:44.312Z,18.50
2022-12-03T01:38:11.834Z,17.20
2022-12-03T01:40:39.365Z,17.70
2022-12-03T01:43:06.907Z,18.40
2022-12-03T01:45:35.911Z,19.03
2022-12-03T01:48:03.485Z,18.63
2022-12-03T01:50:32.638Z,17.83
2022-12-03T01:53:01.456Z,18.23
2022-12-03T01:55:29.205Z,18.10
2022-12-03T01:57:57.647Z,18.50
2022-12-03T02:00:26.965Z,18.83
2022-12-03T02:02:58.516Z,17.03
2022-12-03T02:05:27.595Z,16.53
2022-12-03T02:07:55.633Z,18.50
2022-12-03T02:10:25.374Z,18.03
2022-12-03T02:12:55.354Z,18.07
2022-12-03T02:15:23.282Z,18.87
2022-12-03T02:17:51.338Z,18.13
2022-12-03T02:20:20.963Z,17.70
2022-12-03T02:22:54.363Z,18.33
2022-12-03T02:25:24.644Z,17.47
2022-12-03T02:27:53.988Z,19.67
2022-12-03T02:30:22.572Z,17.70
2022-12-03T02:32:50.577Z,18.20
2022-12-03T02:35:19.566Z,19.43
2022-12-03T02:37:48.540Z,18.63
2022-12-03T02:40:18.099Z,18.80
2022-12-03T02:42:46.449Z,18.67
2022-12-03T02:45:16.129Z,17.50
2022-12-03T02:47:44.691Z,18.03
2022-12-03T02:50:13.443Z,18.67
2022-12-03T02:52:42.037Z,17.87
2022-12-03T02:55:10.070Z,17.80
2022-12-03T02:57:39.755Z,16.93
2022-12-03T03:00:10.915Z,17.20
2022-12-03T03:02:38.705Z,18.50
2022-12-03T03:05:07.327Z,18.53
2022-12-03T03:07:35.353Z,18.77
2022-12-03T03:10:03.244Z,18.33
2022-12-03T03:12:34.755Z,18.30
2022-12-03T03:15:05.873Z,18.27
2022-12-03T03:17:34.925Z,18.37
2022-12-03T03:20:02.617Z,17.80
2022-12-03T03:22:33.124Z,18.63
2022-12-03T03:25:00.805Z,17.20
2022-12-03T03:27:28.450Z,18.20
2022-12-03T03:29:57.503Z,18.27
2022-12-03T03:32:25.404Z,17.93
2022-12-03T03:34:54.648Z,18.03
2022-12-03T03:37:22.432Z,18.53
2022-12-03T03:39:50.239Z,18.70
2022-12-03T03:42:17.965Z,17.33
2022-12-03T03:44:45.590Z,18.67
2022-12-03T03:47:13.359Z,18.57
2022-12-03T03:49:41.047Z,19.10
2022-12-03T03:52:11.815Z,18.33
2022-12-03T03:54:40.124Z,17.53
2022-12-03T03:57:08.300Z,18.30
2022-12-03T03:59:35.838Z,18.00
2022-12-03T04:02:03.537Z,18.10
2022-12-03T04:04:34.224Z,18.30
2022-12-03T04:07:01.799Z,19.43
2022-12-03T04:09:30.641Z,20.03
2022-12-03T04:12:15.679Z,19.40
2022-12-03T04:14:43.249Z,19.40
2022-12-03T04:17:10.859Z,17.63
2022-12-03T04:19:38.451Z,19.57
2022-12-03T04:22:23.392Z,21.17
2022-12-03T04:25:12.353Z,20.67
2022-12-03T04:27:57.404Z,19.73
2022-12-03T04:30:24.974Z,19.97
2022-12-03T04:33:09.903Z,19.27
2022-12-03T04:35:54.043Z,20.17
2022-12-03T04:38:21.667Z,18.93
2022-12-03T04:41:04.246Z,20.43
2022-12-03T04:43:32.843Z,18.40
2022-12-03T04:46:15.657Z,19.40
2022-12-03T04:48:43.323Z,19.37
2022-12-03T04:51:11.054Z,19.23
2022-12-03T04:53:43.288Z,19.13
2022-12-03T04:56:14.937Z,19.77
2022-12-03T04:58:42.499Z,19.20
2022-12-03T05:01:10.171Z,19.27
2022-12-03T05:03:37.654Z,19.17
2022-12-03T05:06:05.227Z,18.47
2022-12-03T05:08:32.725Z,19.77
2022-12-03T05:11:00.255Z,19.17
2022-12-03T05:13:29.214Z,19.70
2022-12-03T05:15:56.924Z,18.97
2022-12-03T05:18:24.403Z,20.47
2022-12-03T05:20:53.662Z,21.30
2022-12-03T05:23:21.834Z,20.27
2022-12-03T05:25:49.331Z,19.93
2022-12-03T05:28:16.924Z,19.03
2022-12-03T05:30:45.863Z,20.53
2022-12-03T05:33:13.546Z,21.30
2022-12-03T05:35:41.141Z,21.93
2022-12-03T05:38:08.689Z,20.73
2022-12-03T05:40:36.541Z,18.93
2022-12-03T05:43:03.938Z,21.23
2022-12-03T05:45:32.916Z,20.83
2022-12-03T05:48:02.466Z,19.77
2022-12-03T05:50:30.944Z,21.27
2022-12-03T05:52:58.902Z,20.60
2022-12-03T05:55:26.677Z,20.60
2022-12-03T05:57:54.300Z,20.37
2022-12-03T06:00:22.831Z,21.13
2022-12-03T06:02:51.833Z,19.60
2022-12-03T06:05:21.170Z,19.40
2022-12-03T06:07:49.135Z,20.47
2022-12-03T06:10:17.786Z,19.30
2022-12-03T06:12:45.301Z,21.20
2022-12-03T06:15:14.161Z,21.10
2022-12-03T06:17:42.384Z,22.03
2022-12-03T06:20:11.330Z,21.57
2022-12-03T06:22:40.403Z,21.73
2022-12-03T06:25:08.294Z,20.27
2022-12-03T06:27:35.906Z,21.27
2022-12-03T06:30:03.494Z,19.17
2022-12-03T06:32:31.343Z,20.77
2022-12-03T06:34:58.905Z,19.60
2022-12-03T06:37:26.393Z,19.40
2022-12-03T06:39:55.319Z,20.57
2022-12-03T06:42:22.862Z,19.87
2022-12-03T06:44:50.446Z,21.97
2022-12-03T06:47:18.022Z,23.90
2022-12-03T06:49:45.537Z,21.77
2022-12-03T06:52:13.126Z,20.27
2022-12-03T06:54:40.787Z,20.13
2022-12-03T06:57:12.044Z,21.03
2022-12-03T06:59:39.729Z,21.03
2022-12-03T07:02:07.682Z,21.30
2022-12-03T07:04:35.241Z,21.20
2022-12-03T07:07:02.829Z,20.23
2022-12-03T07:09:30.499Z,21.40
2022-12-03T07:11:58.430Z,20.70
2022-12-03T07:14:27.362Z,21.00
2022-12-03T07:16:54.860Z,21.17
2022-12-03T07:19:25.197Z,21.77
2022-12-03T07:21:55.196Z,19.43
2022-12-03T07:24:22.903Z,22.30
2022-12-03T07:26:50.410Z,23.73
2022-12-03T07:29:17.978Z,22.13
2022-12-03T07:31:47.012Z,23.20
2022-12-03T07:34:14.684Z,22.03
2022-12-03T07:36:42.182Z,21.13
2022-12-03T07:39:09.690Z,21.50
2022-12-03T07:41:37.363Z,22.10
2022-12-03T07:44:09.296Z,22.53
2022-12-03T07:46:42.167Z,21.57
2022-12-03T07:49:12.196Z,22.80
2022-12-03T07:51:39.895Z,22.13
2022-12-03T07:54:07.774Z,23.40
2022-12-03T07:56:35.562Z,23.33
2022-12-03T07:59:03.058Z,21.93
2022-12-03T08:01:30.872Z,21.90
2022-12-03T08:04:00.765Z,24.50
2022-12-03T08:06:29.837Z,22.10
2022-12-03T08:08:57.601Z,22.97
2022-12-03T08:11:25.259Z,21.47
2022-12-03T08:13:52.850Z,19.77
2022-12-03T08:16:21.259Z,20.03
2022-12-03T08:18:49.292Z,19.87
2022-12-03T08:21:18.367Z,18.37
2022-12-03T08:23:47.244Z,18.50
2022-12-03T08:26:20.166Z,17.77
2022-12-03T08:28:48.128Z,17.73
2022-12-03T08:31:20.365Z,17.43
2022-12-03T08:33:48.941Z,17.87
2022-12-03T08:36:19.969Z,16.97
2022-12-03T08:38:51.004Z,18.70
2022-12-03T08:41:40.382Z,17.33
2022-12-03T08:44:22.670Z,16.33
2022-12-03T08:46:51.236Z,16.07
2022-12-03T08:49:19.820Z,16.73
2022-12-03T08:51:47.350Z,16.83
2022-12-03T08:54:20.016Z,16.30
2022-12-03T08:56:47.558Z,17.00
2022-12-03T08:59:25.437Z,17.03
2022-12-03T09:01:53.527Z,17.10
2022-12-03T09:04:24.048Z,17.17
2022-12-03T09:06:51.979Z,17.63
2022-12-03T09:09:20.903Z,16.17
2022-12-03T09:11:48.626Z,17.97
2022-12-03T09:14:18.985Z,16.57
2022-12-03T09:16:49.089Z,15.80
2022-12-03T09:19:16.770Z,15.23
2022-12-03T09:21:44.502Z,15.03
2022-12-03T09:24:12.061Z,15.93
2022-12-03T09:26:41.003Z,15.90
2022-12-03T09:29:12.137Z,18.27
2022-12-03T09:31:43.091Z,16.50
2022-12-03T09:34:11.164Z,15.53
2022-12-03T09:36:38.792Z,14.73
2022-12-03T09:39:06.416Z,14.57
2022-12-03T09:41:34.014Z,14.30
2022-12-03T09:44:04.930Z,14.20
2022-12-03T09:46:33.669Z,13.67
2022-12-03T09:49:01.636Z,14.07
2022-12-03T09:51:35.852Z,14.10
2022-12-03T09:54:04.702Z,13.70
2022-12-03T09:56:33.729Z,12.37
2022-12-03T09:59:01.536Z,13.27
2022-12-03T10:01:32.133Z,13.77
2022-12-03T10:03:59.836Z,12.87
2022-12-03T10:06:27.368Z,12.43
2022-12-03T10:08:55.725Z,14.00
2022-12-03T10:11:25.021Z,13.63
2022-12-03T10:13:53.076Z,12.83
2022-12-03T10:16:21.290Z,13.37
2022-12-03T10:18:51.690Z,13.60
2022-12-03T10:21:20.476Z,13.73
2022-12-03T10:23:54.935Z,13.03
2022-12-03T10:26:36.938Z,13.70
2022-12-03T10:29:12.581Z,12.23
2022-12-03T10:31:40.099Z,13.13
2022-12-03T10:34:09.749Z,12.97
2022-12-03T10:36:37.543Z,12.80
2022-12-03T10:39:07.793Z,12.57
2022-12-03T10:41:35.539Z,12.67
2022-12-03T10:44:13.599Z,13.00
2022-12-03T10:46:41.349Z,11.60
2022-12-03T10:49:11.267Z,12.57
2022-12-03T10:51:39.452Z,12.40
2022-12-03T10:54:14.607Z,11.93
2022-12-03T10:56:42.164Z,12.13
2022-12-03T10:59:13.414Z,11.33
2022-12-03T11:01:41.060Z,11.87
2022-12-03T11:04:16.608Z,12.53
2022-12-03T11:06:44.114Z,11.23
2022-12-03T11:09:15.216Z,10.03
2022-12-03T11:11:42.856Z,11.10
2022-12-03T11:14:11.236Z,10.67
2022-12-03T11:17:11.425Z,10.30
2022-12-03T11:19:44.707Z,10.03
2022-12-03T11:22:39.955Z,9.43
2022-12-03T11:25:26.022Z,9.70
2022-12-03T11:28:08.630Z,10.90
2022-12-03T11:30:56.531Z,10.07
2022-12-03T11:33:25.312Z,10.40
2022-12-03T11:36:07.939Z,10.13
2022-12-03T11:38:56.539Z,15.30
2022-12-03T11:41:26.173Z,15.07
2022-12-03T11:44:27.978Z,12.63
2022-12-03T11:46:57.476Z,9.63
2022-12-03T11:49:34.721Z,9.73
2022-12-03T11:52:06.198Z,9.77
2022-12-03T11:54:37.056Z,9.30
2022-12-03T11:57:05.148Z,11.00
2022-12-03T11:59:33.127Z,9.87
2022-12-03T12:02:01.798Z,13.03
2022-12-03T12:04:31.180Z,10.40
2022-12-03T12:07:01.177Z,10.63
2022-12-03T12:09:47.558Z,10.27
2022-12-03T12:12:31.063Z,12.03
2022-12-03T12:14:59.911Z,12.13
2022-12-03T12:17:35.167Z,11.00
2022-12-03T12:20:13.070Z,11.73
2022-12-03T12:22:40.723Z,10.80
2022-12-03T12:25:26.574Z,11.77
2022-12-03T12:27:56.030Z,12.33
2022-12-03T12:30:24.824Z,13.33
2022-12-03T12:32:56.660Z,11.70
2022-12-03T12:35:26.020Z,11.37
2022-12-03T12:38:00.981Z,12.17
2022-12-03T12:40:29.533Z,10.87
2022-12-03T12:43:11.768Z,11.63
2022-12-03T12:45:41.187Z,12.37
2022-12-03T12:48:16.382Z,12.13
2022-12-03T12:50:45.849Z,11.43
2022-12-03T12:53:17.266Z,11.07
2022-12-03T12:55:45.873Z,11.50
2022-12-03T12:58:17.157Z,11.10
2022-12-03T13:00:46.291Z,11.40
2022-12-03T13:03:18.615Z,11.70
2022-12-03T13:05:48.352Z,10.60
2022-12-03T13:08:25.751Z,12.23
2022-12-03T13:10:56.405Z,11.43
2022-12-03T13:13:31.122Z,12.30
2022-12-03T13:16:00.858Z,12.17
2022-12-03T13:18:31.031Z,12.83
2022-12-03T13:20:59.361Z,11.57
2022-12-03T13:23:32.876Z,12.33
2022-12-03T13:28:48.905Z,11.07
2022-12-03T13:31:24.939Z,11.90
2022-12-03T13:33:52.605Z,11.43
2022-12-03T13:36:21.577Z,11.07
2022-12-03T14:04:37.435Z,11.23
2022-12-03T14:07:09.296Z,10.20
2022-12-03T14:09:36.964Z,11.17
2022-12-03T14:12:22.082Z,11.03
2022-12-03T14:14:49.665Z,9.73
2022-12-03T14:17:18.748Z,10.03
2022-12-03T14:19:46.500Z,10.37
2022-12-03T14:22:14.142Z,9.63
2022-12-03T14:24:41.862Z,10.80
2022-12-03T14:27:11.357Z,9.93
2022-12-03T14:29:39.097Z,9.97
2022-12-03T14:32:06.728Z,9.53
2022-12-03T14:34:35.613Z,9.83
2022-12-03T14:37:03.248Z,9.30
2022-12-03T14:39:30.931Z,8.80
2022-12-03T14:42:16.891Z,8.90
2022-12-03T14:44:45.295Z,8.53
2022-12-03T14:47:13.213Z,9.53
2022-12-03T14:49:42.257Z,8.90
2022-12-03T14:52:12.550Z,9.33
2022-12-03T14:54:42.264Z,10.00
2022-12-03T14:57:11.425Z,10.17
2022-12-03T14:59:39.102Z,9.97
2022-12-03T15:02:06.716Z,9.60
2022-12-03T15:04:34.643Z,10.10
2022-12-03T15:07:03.820Z,9.20
2022-12-03T15:09:31.326Z,8.27
2022-12-03T15:12:00.053Z,8.90
2022-12-03T15:14:27.923Z,8.80
2022-12-03T15:16:55.659Z,9.30
2022-12-03T15:19:23.452Z,8.33
2022-12-03T15:21:51.190Z,9.83
2022-12-03T15:24:20.123Z,9.33
2022-12-03T15:26:47.660Z,7.70
2022-12-03T15:29:15.223Z,7.63
2022-12-03T15:31:42.900Z,8.70
2022-12-03T15:34:10.477Z,8.93
2022-12-03T15:36:37.985Z,9.50
2022-12-03T15:39:05.599Z,9.47
2022-12-03T15:41:34.537Z,9.27
2022-12-03T15:44:02.750Z,8.73
2022-12-03T15:46:31.889Z,8.87
2022-12-03T15:49:00.454Z,9.67
2022-12-03T15:51:28.062Z,9.00
2022-12-03T15:53:55.620Z,9.97
2022-12-03T15:56:23.171Z,11.03
2022-12-03T15:58:53.470Z,10.03
2022-12-03T16:01:21.231Z,9.60
2022-12-03T16:03:48.866Z,8.80
2022-12-03T16:06:18.131Z,10.33
2022-12-03T16:08:46.041Z,9.17
2022-12-03T16:11:13.583Z,10.23
2022-12-03T16:13:41.120Z,10.43
2022-12-03T16:16:12.801Z,10.07
2022-12-03T16:18:40.427Z,9.60
2022-12-03T16:21:07.931Z,9.73
2022-12-03T16:23:35.510Z,9.03
2022-12-03T16:26:03.075Z,9.97
2022-12-03T16:28:30.776Z,9.33
2022-12-03T16:30:58.484Z,10.90
2022-12-03T16:33:28.145Z,10.03
2022-12-03T16:35:55.877Z,10.47
2022-12-03T16:38:23.702Z,9.77
2022-12-03T16:40:51.314Z,10.23
2022-12-03T16:43:18.876Z,10.97
2022-12-03T16:46:02.441Z,11.20
2022-12-03T16:48:31.460Z,10.57
2022-12-03T16:50:59.031Z,12.07
2022-12-03T16:53:26.573Z,10.37
2022-12-03T16:55:54.196Z,10.10
2022-12-03T16:58:21.992Z,11.30
2022-12-03T17:00:49.679Z,12.70
2022-12-03T17:03:17.978Z,16.73
2022-12-03T17:05:47.503Z,25.60
2022-12-03T17:08:15.442Z,11.83
2022-12-03T17:10:43.278Z,12.07
2022-12-03T17:13:11.333Z,21.47
2022-12-03T17:15:39.271Z,10.50
2022-12-03T17:18:07.330Z,10.47
2022-12-03T17:20:34.820Z,11.90
2022-12-03T17:23:04.235Z,11.10
2022-12-03T17:25:32.053Z,11.70
2022-12-03T17:27:59.614Z,11.37
2022-12-03T17:30:27.194Z,12.13
2022-12-03T17:32:54.839Z,10.67
2022-12-03T17:35:22.566Z,12.10
2022-12-03T17:37:50.138Z,12.10
2022-12-03T17:40:19.061Z,12.60
2022-12-03T17:42:46.558Z,14.30
2022-12-03T17:45:14.154Z,11.70
2022-12-03T17:47:42.011Z,13.60
2022-12-03T17:50:10.099Z,14.03
2022-12-03T17:52:37.654Z,13.73
2022-12-03T17:55:21.322Z,15.60
2022-12-03T17:57:54.447Z,11.70
2022-12-03T18:00:22.087Z,13.73
2022-12-03T18:02:49.706Z,13.40
2022-12-03T18:05:17.587Z,13.20
2022-12-03T18:07:45.133Z,11.80
2022-12-03T18:10:12.689Z,12.37
2022-12-03T18:12:40.340Z,12.47
2022-12-03T18:15:10.113Z,12.40
2022-12-03T18:17:37.705Z,12.97
2022-12-03T18:20:05.844Z,13.73
2022-12-03T18:22:33.384Z,11.97
2022-12-03T18:25:01.079Z,11.63
2022-12-03T18:27:28.604Z,13.13
2022-12-03T18:29:56.407Z,12.17
2022-12-03T18:32:29.320Z,12.43
2022-12-03T18:34:57.215Z,13.50
2022-12-03T18:37:26.111Z,15.20
2022-12-03T18:39:54.013Z,13.83
2022-12-03T18:42:22.856Z,12.40
2022-12-03T18:44:51.028Z,13.30
2022-12-03T18:47:19.760Z,14.03
2022-12-03T18:49:48.833Z,14.03
2022-12-03T18:52:16.937Z,13.87
2022-12-03T18:54:44.462Z,15.10
2022-12-03T18:57:11.975Z,13.93
2022-12-03T18:59:39.687Z,14.23
2022-12-03T19:02:07.864Z,13.90
2022-12-03T19:04:35.635Z,16.17
2022-12-03T19:07:04.592Z,14.80
2022-12-03T19:09:32.189Z,14.10
2022-12-03T19:11:59.693Z,14.23
2022-12-03T19:14:27.290Z,14.40
2022-12-03T19:16:54.887Z,14.37
2022-12-03T19:19:22.439Z,15.40
2022-12-03T19:21:50.053Z,15.20
2022-12-03T19:24:26.070Z,15.57
2022-12-03T19:26:55.454Z,15.30
2022-12-03T19:29:23.227Z,14.67
2022-12-03T19:31:51.243Z,14.60
2022-12-03T19:34:19.020Z,14.77
2022-12-03T19:36:47.441Z,15.73
2022-12-03T19:39:15.225Z,16.93
2022-12-03T19:41:44.731Z,15.43
2022-12-03T19:44:13.367Z,16.40
2022-12-03T19:46:41.474Z,15.80
2022-12-03T19:49:08.979Z,15.87
2022-12-03T19:51:36.503Z,15.27
2022-12-03T19:54:04.491Z,15.67
2022-12-03T19:56:32.332Z,15.77
2022-12-03T19:59:01.378Z,15.40
2022-12-03T20:01:31.610Z,16.37
2022-12-03T20:04:00.544Z,16.23
2022-12-03T20:06:29.155Z,16.10
2022-12-03T20:08:56.730Z,16.07
2022-12-03T20:11:25.290Z,15.67
2022-12-03T20:13:53.706Z,17.27
2022-12-03T20:16:23.176Z,18.03
2022-12-03T20:18:51.445Z,16.53
2022-12-03T20:21:20.038Z,15.73
2022-12-03T20:23:48.244Z,16.47
2022-12-03T20:26:16.855Z,16.37
2022-12-03T20:28:45.010Z,15.70
2022-12-03T20:31:13.578Z,14.97
2022-12-03T20:33:43.565Z,14.77
2022-12-03T20:36:11.438Z,16.33
2022-12-03T20:38:39.295Z,15.70
2022-12-03T20:41:07.919Z,17.23
2022-12-03T20:43:35.764Z,15.43
2022-12-03T20:46:07.223Z,14.53
2022-12-03T20:48:34.809Z,15.10
2022-12-03T20:51:05.772Z,15.67
2022-12-03T20:53:33.404Z,15.43
2022-12-03T20:56:01.535Z,15.10
2022-12-03T20:58:29.454Z,15.37
2022-12-03T21:00:57.261Z,14.47
2022-12-03T21:03:24.879Z,15.10
2022-12-03T21:05:59.299Z,15.73
2022-12-03T21:08:40.639Z,14.67
2022-12-03T21:11:09.927Z,15.10
2022-12-03T21:13:41.042Z,14.57
2022-12-03T21:16:09.499Z,15.50
2022-12-03T21:18:37.156Z,14.07
2022-12-03T21:21:05.023Z,14.97
2022-12-03T21:23:34.430Z,15.67
2022-12-03T21:26:03.408Z,14.47
2022-12-03T21:28:30.976Z,14.40
2022-12-03T21:31:01.418Z,14.07
2022-12-03T21:33:29.532Z,15.13
2022-12-03T21:35:57.313Z,13.70
2022-12-03T21:38:25.402Z,14.47
2022-12-03T21:40:54.371Z,14.17
2022-12-03T21:43:22.002Z,14.93
2022-12-03T21:45:49.954Z,14.03
2022-12-03T21:48:17.865Z,14.73
2022-12-03T21:50:45.987Z,14.00
2022-12-03T21:53:13.633Z,15.23
2022-12-03T21:55:41.342Z,13.73
2022-12-03T21:58:10.255Z,14.17
2022-12-03T22:00:37.833Z,13.37
2022-12-03T22:03:05.517Z,14.70
2022-12-03T22:05:33.144Z,14.17
2022-12-03T22:08:00.730Z,14.67
2022-12-03T22:10:28.239Z,13.60
2022-12-03T22:12:55.968Z,13.43
2022-12-03T22:15:25.021Z,13.23
2022-12-03T22:17:52.686Z,13.47
2022-12-03T22:20:20.587Z,13.70
2022-12-03T22:22:48.118Z,14.37
2022-12-03T22:25:15.932Z,14.63
2022-12-03T22:27:58.225Z,12.90
2022-12-03T22:30:27.201Z,14.23
2022-12-03T22:32:54.788Z,12.90
2022-12-03T22:35:22.386Z,13.50
2022-12-03T22:37:49.894Z,13.30
2022-12-03T22:40:17.719Z,14.47
2022-12-03T22:42:51.053Z,12.93
2022-12-03T22:45:18.788Z,13.33
2022-12-03T22:47:47.643Z,13.80
2022-12-03T22:50:15.123Z,12.87
2022-12-03T22:52:42.845Z,12.60
2022-12-03T22:55:10.542Z,13.43
2022-12-03T22:57:38.072Z,12.00
2022-12-03T23:00:08.125Z,12.73
2022-12-03T23:02:35.747Z,14.00
2022-12-03T23:05:04.948Z,12.20
2022-12-03T23:07:32.587Z,12.03
2022-12-03T23:10:00.162Z,11.90
2022-12-03T23:12:27.693Z,11.33
2022-12-03T23:14:55.768Z,12.13
2022-12-03T23:17:23.288Z,12.87
2022-12-03T23:19:51.001Z,12.03
2022-12-03T23:22:20.047Z,12.10
2022-12-03T23:24:47.575Z,11.27
2022-12-03T23:27:15.229Z,12.87
2022-12-03T23:29:42.945Z,13.13
2022-12-03T23:32:10.599Z,12.23
2022-12-03T23:34:38.205Z,12.70
2022-12-03T23:37:05.837Z,13.47
2022-12-03T23:39:34.770Z,12.23
2022-12-03T23:42:02.424Z,12.13
2022-12-03T23:44:29.951Z,13.33
2022-12-03T23:46:57.618Z,12.47
2022-12-03T23:49:25.204Z,11.47
2022-12-03T23:51:52.775Z,11.80
2022-12-03T23:54:20.422Z,11.70
2022-12-03T23:56:49.376Z,11.50
2022-12-03T23:59:16.877Z,12.47
